sensor_id;sensor_type;location;lat;lon;timestamp;P1;durP1;ratioP1;P2;durP2;ratioP2
43990;SDS011;29654;50.784;20.604;2022-09-09T00:04:50;11.38;;;10.27;;
43990;SDS011;29654;50.784;20.604;2022-09-09T00:10:06;11.60;;;10.60;;
43990;SDS011;29654;50.784;20.604;2022-09-09T00:15:20;10.98;;;10.05;;
43990;SDS011;29654;50.784;20.604;2022-09-09T00:20:27;9.75;;;8.98;;
43990;SDS011;29654;50.784;20.604;2022-09-09T00:25:40;10.02;;;9.18;;
43990;SDS011;29654;50.784;20.604;2022-09-09T00:30:51;8.82;;;8.05;;
43990;SDS011;29654;50.784;20.604;2022-09-09T00:35:56;8.65;;;8.00;;
43990;SDS011;29654;50.784;20.604;2022-09-09T00:41:03;8.32;;;7.53;;
43990;SDS011;29654;50.784;20.604;2022-09-09T00:46:21;7.38;;;6.80;;
43990;SDS011;29654;50.784;20.604;2022-09-09T00:51:59;8.40;;;6.65;;
43990;SDS011;29654;50.784;20.604;2022-09-09T00:57:24;6.47;;;5.88;;
43990;SDS011;29654;50.784;20.604;2022-09-09T01:02:31;6.88;;;6.28;;
43990;SDS011;29654;50.784;20.604;2022-09-09T01:07:44;5.85;;;5.32;;
43990;SDS011;29654;50.784;20.604;2022-09-09T01:12:52;5.05;;;4.65;;
43990;SDS011;29654;50.784;20.604;2022-09-09T01:17:59;5.78;;;5.28;;
43990;SDS011;29654;50.784;20.604;2022-09-09T01:28:50;5.75;;;5.25;;
43990;SDS011;29654;50.784;20.604;2022-09-09T01:33:59;5.97;;;5.40;;
43990;SDS011;29654;50.784;20.604;2022-09-09T01:39:02;5.90;;;5.40;;
43990;SDS011;29654;50.784;20.604;2022-09-09T01:44:08;6.13;;;5.60;;
43990;SDS011;29654;50.784;20.604;2022-09-09T01:49:16;5.75;;;5.35;;
43990;SDS011;29654;50.784;20.604;2022-09-09T01:54:20;6.13;;;5.55;;
43990;SDS011;29654;50.784;20.604;2022-09-09T01:59:38;5.97;;;5.47;;
43990;SDS011;29654;50.784;20.604;2022-09-09T02:05:02;5.35;;;4.95;;
43990;SDS011;29654;50.784;20.604;2022-09-09T02:10:19;5.55;;;5.05;;
43990;SDS011;29654;50.784;20.604;2022-09-09T02:15:37;5.22;;;4.82;;
43990;SDS011;29654;50.784;20.604;2022-09-09T02:20:47;5.53;;;5.05;;
43990;SDS011;29654;50.784;20.604;2022-09-09T02:25:51;5.80;;;5.30;;
43990;SDS011;29654;50.784;20.604;2022-09-09T02:31:01;5.95;;;5.32;;
43990;SDS011;29654;50.784;20.604;2022-09-09T02:36:10;5.50;;;5.10;;
43990;SDS011;29654;50.784;20.604;2022-09-09T02:41:18;6.50;;;5.68;;
43990;SDS011;29654;50.784;20.604;2022-09-09T02:46:31;5.35;;;4.82;;
43990;SDS011;29654;50.784;20.604;2022-09-09T02:52:02;5.55;;;5.05;;
43990;SDS011;29654;50.784;20.604;2022-09-09T02:57:11;5.50;;;5.10;;
43990;SDS011;29654;50.784;20.604;2022-09-09T03:02:22;5.68;;;5.18;;
43990;SDS011;29654;50.784;20.604;2022-09-09T03:07:31;5.45;;;5.00;;
43990;SDS011;29654;50.784;20.604;2022-09-09T03:12:35;5.00;;;4.60;;
43990;SDS011;29654;50.784;20.604;2022-09-09T03:17:41;6.25;;;5.55;;
43990;SDS011;29654;50.784;20.604;2022-09-09T03:22:44;5.30;;;4.90;;
43990;SDS011;29654;50.784;20.604;2022-09-09T03:27:47;5.20;;;4.80;;
43990;SDS011;29654;50.784;20.604;2022-09-09T03:32:52;5.07;;;4.68;;
43990;SDS011;29654;50.784;20.604;2022-09-09T03:37:56;5.68;;;4.97;;
43990;SDS011;29654;50.784;20.604;2022-09-09T03:43:03;5.50;;;5.00;;
43990;SDS011;29654;50.784;20.604;2022-09-09T03:48:09;5.75;;;5.20;;
43990;SDS011;29654;50.784;20.604;2022-09-09T03:53:12;5.45;;;5.05;;
43990;SDS011;29654;50.784;20.604;2022-09-09T03:58:17;6.22;;;5.65;;
43990;SDS011;29654;50.784;20.604;2022-09-09T04:03:23;6.18;;;5.57;;
43990;SDS011;29654;50.784;20.604;2022-09-09T04:08:26;6.40;;;5.90;;
43990;SDS011;29654;50.784;20.604;2022-09-09T04:13:32;6.60;;;5.68;;
43990;SDS011;29654;50.784;20.604;2022-09-09T04:18:37;7.28;;;5.93;;
43990;SDS011;29654;50.784;20.604;2022-09-09T04:23:41;7.55;;;6.43;;
43990;SDS011;29654;50.784;20.604;2022-09-09T04:28:44;6.82;;;6.32;;
43990;SDS011;29654;50.784;20.604;2022-09-09T04:33:53;6.85;;;6.25;;
43990;SDS011;29654;50.784;20.604;2022-09-09T04:38:56;6.55;;;5.95;;
43990;SDS011;29654;50.784;20.604;2022-09-09T04:44:00;6.10;;;5.60;;
43990;SDS011;29654;50.784;20.604;2022-09-09T04:49:05;8.40;;;5.78;;
43990;SDS011;29654;50.784;20.604;2022-09-09T04:54:09;6.90;;;6.30;;
43990;SDS011;29654;50.784;20.604;2022-09-09T04:59:14;6.55;;;5.90;;
43990;SDS011;29654;50.784;20.604;2022-09-09T05:04:22;6.28;;;5.78;;
43990;SDS011;29654;50.784;20.604;2022-09-09T05:09:25;6.07;;;5.47;;
43990;SDS011;29654;50.784;20.604;2022-09-09T05:14:28;5.95;;;5.00;;
43990;SDS011;29654;50.784;20.604;2022-09-09T05:19:35;5.65;;;5.15;;
43990;SDS011;29654;50.784;20.604;2022-09-09T05:24:38;4.47;;;4.15;;
43990;SDS011;29654;50.784;20.604;2022-09-09T05:29:41;6.13;;;5.63;;
43990;SDS011;29654;50.784;20.604;2022-09-09T05:34:47;6.20;;;5.20;;
43990;SDS011;29654;50.784;20.604;2022-09-09T05:39:51;5.43;;;4.93;;
43990;SDS011;29654;50.784;20.604;2022-09-09T05:44:54;5.45;;;4.95;;
43990;SDS011;29654;50.784;20.604;2022-09-09T05:50:00;4.57;;;4.18;;
43990;SDS011;29654;50.784;20.604;2022-09-09T05:55:03;5.40;;;5.00;;
43990;SDS011;29654;50.784;20.604;2022-09-09T06:00:08;4.93;;;4.53;;
43990;SDS011;29654;50.784;20.604;2022-09-09T06:05:18;5.45;;;4.95;;
43990;SDS011;29654;50.784;20.604;2022-09-09T06:10:23;5.30;;;4.53;;
43990;SDS011;29654;50.784;20.604;2022-09-09T06:15:27;5.63;;;4.10;;
43990;SDS011;29654;50.784;20.604;2022-09-09T06:20:32;5.45;;;4.35;;
43990;SDS011;29654;50.784;20.604;2022-09-09T06:25:35;4.45;;;4.05;;
43990;SDS011;29654;50.784;20.604;2022-09-09T06:30:42;5.00;;;4.45;;
43990;SDS011;29654;50.784;20.604;2022-09-09T06:35:52;6.55;;;5.95;;
43990;SDS011;29654;50.784;20.604;2022-09-09T06:40:58;6.70;;;6.10;;
43990;SDS011;29654;50.784;20.604;2022-09-09T06:46:04;7.22;;;6.63;;
43990;SDS011;29654;50.784;20.604;2022-09-09T06:51:13;7.00;;;6.38;;
43990;SDS011;29654;50.784;20.604;2022-09-09T06:56:19;6.95;;;5.97;;
43990;SDS011;29654;50.784;20.604;2022-09-09T07:01:25;6.57;;;5.55;;
43990;SDS011;29654;50.784;20.604;2022-09-09T07:06:36;7.78;;;5.60;;
43990;SDS011;29654;50.784;20.604;2022-09-09T07:11:43;8.13;;;6.13;;
43990;SDS011;29654;50.784;20.604;2022-09-09T07:16:49;6.22;;;5.45;;
43990;SDS011;29654;50.784;20.604;2022-09-09T07:21:54;5.80;;;4.88;;
43990;SDS011;29654;50.784;20.604;2022-09-09T07:26:58;6.72;;;5.70;;
43990;SDS011;29654;50.784;20.604;2022-09-09T07:32:01;8.90;;;8.10;;
43990;SDS011;29654;50.784;20.604;2022-09-09T07:37:10;6.03;;;5.53;;
43990;SDS011;29654;50.784;20.604;2022-09-09T07:42:16;7.45;;;6.75;;
43990;SDS011;29654;50.784;20.604;2022-09-09T07:47:20;6.45;;;5.95;;
43990;SDS011;29654;50.784;20.604;2022-09-09T07:52:26;7.05;;;6.45;;
43990;SDS011;29654;50.784;20.604;2022-09-09T07:57:33;7.30;;;6.10;;
43990;SDS011;29654;50.784;20.604;2022-09-09T08:02:37;6.50;;;5.90;;
43990;SDS011;29654;50.784;20.604;2022-09-09T08:07:41;8.50;;;7.88;;
43990;SDS011;29654;50.784;20.604;2022-09-09T08:12:44;12.95;;;11.63;;
43990;SDS011;29654;50.784;20.604;2022-09-09T08:17:47;7.18;;;6.57;;
43990;SDS011;29654;50.784;20.604;2022-09-09T08:22:51;6.88;;;6.30;;
43990;SDS011;29654;50.784;20.604;2022-09-09T08:27:54;6.45;;;5.85;;
43990;SDS011;29654;50.784;20.604;2022-09-09T08:32:57;7.60;;;7.00;;
43990;SDS011;29654;50.784;20.604;2022-09-09T08:38:02;5.35;;;4.85;;
43990;SDS011;29654;50.784;20.604;2022-09-09T08:43:05;5.22;;;4.75;;
43990;SDS011;29654;50.784;20.604;2022-09-09T08:48:12;5.10;;;4.60;;
43990;SDS011;29654;50.784;20.604;2022-09-09T08:53:36;4.95;;;3.83;;
43990;SDS011;29654;50.784;20.604;2022-09-09T08:58:46;5.03;;;4.63;;
43990;SDS011;29654;50.784;20.604;2022-09-09T09:03:55;4.57;;;4.15;;
43990;SDS011;29654;50.784;20.604;2022-09-09T09:09:07;7.03;;;4.82;;
43990;SDS011;29654;50.784;20.604;2022-09-09T09:14:20;4.18;;;3.88;;
43990;SDS011;29654;50.784;20.604;2022-09-09T09:19:29;4.20;;;3.90;;
43990;SDS011;29654;50.784;20.604;2022-09-09T09:24:39;4.03;;;3.72;;
43990;SDS011;29654;50.784;20.604;2022-09-09T09:29:54;4.30;;;3.85;;
43990;SDS011;29654;50.784;20.604;2022-09-09T09:34:59;3.80;;;3.50;;
43990;SDS011;29654;50.784;20.604;2022-09-09T09:40:11;3.40;;;3.10;;
43990;SDS011;29654;50.784;20.604;2022-09-09T09:45:20;4.63;;;4.25;;
43990;SDS011;29654;50.784;20.604;2022-09-09T09:50:33;3.28;;;2.97;;
43990;SDS011;29654;50.784;20.604;2022-09-09T09:55:44;3.08;;;2.88;;
43990;SDS011;29654;50.784;20.604;2022-09-09T10:00:56;4.13;;;3.83;;
43990;SDS011;29654;50.784;20.604;2022-09-09T10:06:02;3.00;;;2.72;;
43990;SDS011;29654;50.784;20.604;2022-09-09T10:11:15;2.70;;;2.45;;
43990;SDS011;29654;50.784;20.604;2022-09-09T10:16:34;2.83;;;2.65;;
43990;SDS011;29654;50.784;20.604;2022-09-09T10:21:54;2.83;;;2.63;;
43990;SDS011;29654;50.784;20.604;2022-09-09T10:27:20;2.53;;;2.33;;
43990;SDS011;29654;50.784;20.604;2022-09-09T10:32:33;2.92;;;2.63;;
43990;SDS011;29654;50.784;20.604;2022-09-09T10:37:46;2.72;;;2.53;;
43990;SDS011;29654;50.784;20.604;2022-09-09T10:43:24;2.40;;;2.30;;
43990;SDS011;29654;50.784;20.604;2022-09-09T10:48:50;2.65;;;2.45;;
43990;SDS011;29654;50.784;20.604;2022-09-09T10:54:10;2.15;;;1.95;;
43990;SDS011;29654;50.784;20.604;2022-09-09T10:59:29;2.40;;;2.20;;
43990;SDS011;29654;50.784;20.604;2022-09-09T11:04:40;1.80;;;1.70;;
43990;SDS011;29654;50.784;20.604;2022-09-09T11:09:49;2.00;;;1.90;;
43990;SDS011;29654;50.784;20.604;2022-09-09T11:15:04;2.40;;;2.20;;
43990;SDS011;29654;50.784;20.604;2022-09-09T11:20:16;2.15;;;1.95;;
43990;SDS011;29654;50.784;20.604;2022-09-09T11:25:20;2.20;;;2.10;;
43990;SDS011;29654;50.784;20.604;2022-09-09T11:30:30;2.47;;;2.15;;
43990;SDS011;29654;50.784;20.604;2022-09-09T11:35:47;1.90;;;1.80;;
43990;SDS011;29654;50.784;20.604;2022-09-09T11:41:05;1.80;;;1.70;;
43990;SDS011;29654;50.784;20.604;2022-09-09T11:46:11;2.95;;;2.17;;
43990;SDS011;29654;50.784;20.604;2022-09-09T11:51:25;2.13;;;2.03;;
43990;SDS011;29654;50.784;20.604;2022-09-09T11:56:31;1.60;;;1.50;;
43990;SDS011;29654;50.784;20.604;2022-09-09T12:01:38;1.73;;;1.63;;
43990;SDS011;29654;50.784;20.604;2022-09-09T12:06:43;1.92;;;1.60;;
43990;SDS011;29654;50.784;20.604;2022-09-09T12:11:48;1.85;;;1.75;;
43990;SDS011;29654;50.784;20.604;2022-09-09T12:16:52;1.85;;;1.75;;
43990;SDS011;29654;50.784;20.604;2022-09-09T12:21:58;1.80;;;1.70;;
43990;SDS011;29654;50.784;20.604;2022-09-09T12:27:07;2.00;;;1.88;;
43990;SDS011;29654;50.784;20.604;2022-09-09T12:32:22;2.30;;;1.80;;
43990;SDS011;29654;50.784;20.604;2022-09-09T12:37:27;2.20;;;2.10;;
43990;SDS011;29654;50.784;20.604;2022-09-09T12:42:39;1.83;;;1.73;;
43990;SDS011;29654;50.784;20.604;2022-09-09T12:47:44;2.10;;;1.95;;
43990;SDS011;29654;50.784;20.604;2022-09-09T12:52:50;1.63;;;1.52;;
43990;SDS011;29654;50.784;20.604;2022-09-09T12:57:57;2.10;;;2.00;;
43990;SDS011;29654;50.784;20.604;2022-09-09T13:03:02;2.05;;;1.90;;
43990;SDS011;29654;50.784;20.604;2022-09-09T13:08:19;2.00;;;1.90;;
43990;SDS011;29654;50.784;20.604;2022-09-09T13:13:23;1.95;;;1.85;;
43990;SDS011;29654;50.784;20.604;2022-09-09T13:18:33;1.70;;;1.60;;
43990;SDS011;29654;50.784;20.604;2022-09-09T13:23:38;1.50;;;1.40;;
43990;SDS011;29654;50.784;20.604;2022-09-09T13:28:41;2.08;;;1.98;;
43990;SDS011;29654;50.784;20.604;2022-09-09T13:33:48;1.75;;;1.65;;
43990;SDS011;29654;50.784;20.604;2022-09-09T13:38:54;1.92;;;1.80;;
43990;SDS011;29654;50.784;20.604;2022-09-09T13:43:59;1.88;;;1.77;;
43990;SDS011;29654;50.784;20.604;2022-09-09T13:49:18;2.25;;;1.50;;
43990;SDS011;29654;50.784;20.604;2022-09-09T13:54:24;1.98;;;1.88;;
43990;SDS011;29654;50.784;20.604;2022-09-09T13:59:27;1.50;;;1.40;;
43990;SDS011;29654;50.784;20.604;2022-09-09T14:04:32;1.67;;;1.58;;
43990;SDS011;29654;50.784;20.604;2022-09-09T14:09:35;1.75;;;1.60;;
43990;SDS011;29654;50.784;20.604;2022-09-09T14:14:39;2.13;;;1.85;;
43990;SDS011;29654;50.784;20.604;2022-09-09T14:19:44;1.38;;;1.33;;
43990;SDS011;29654;50.784;20.604;2022-09-09T14:24:47;2.40;;;2.03;;
43990;SDS011;29654;50.784;20.604;2022-09-09T14:29:49;2.17;;;1.98;;
43990;SDS011;29654;50.784;20.604;2022-09-09T14:34:54;2.50;;;2.08;;
43990;SDS011;29654;50.784;20.604;2022-09-09T14:39:57;2.63;;;2.28;;
43990;SDS011;29654;50.784;20.604;2022-09-09T14:45:00;1.75;;;1.50;;
43990;SDS011;29654;50.784;20.604;2022-09-09T14:50:05;1.90;;;1.80;;
43990;SDS011;29654;50.784;20.604;2022-09-09T14:55:10;3.35;;;1.83;;
43990;SDS011;29654;50.784;20.604;2022-09-09T15:00:13;4.30;;;1.92;;
43990;SDS011;29654;50.784;20.604;2022-09-09T15:05:18;2.10;;;1.95;;
43990;SDS011;29654;50.784;20.604;2022-09-09T15:10:21;2.15;;;2.00;;
43990;SDS011;29654;50.784;20.604;2022-09-09T15:15:26;2.10;;;2.00;;
43990;SDS011;29654;50.784;20.604;2022-09-09T15:20:31;1.63;;;1.52;;
43990;SDS011;29654;50.784;20.604;2022-09-09T15:25:36;2.33;;;1.65;;
43990;SDS011;29654;50.784;20.604;2022-09-09T15:30:38;2.05;;;1.95;;
43990;SDS011;29654;50.784;20.604;2022-09-09T15:35:44;5.55;;;1.63;;
43990;SDS011;29654;50.784;20.604;2022-09-09T15:40:52;2.22;;;2.03;;
43990;SDS011;29654;50.784;20.604;2022-09-09T15:45:58;2.00;;;1.90;;
43990;SDS011;29654;50.784;20.604;2022-09-09T15:51:26;1.75;;;1.50;;
43990;SDS011;29654;50.784;20.604;2022-09-09T15:56:29;1.98;;;1.50;;
43990;SDS011;29654;50.784;20.604;2022-09-09T16:01:35;1.88;;;1.77;;
43990;SDS011;29654;50.784;20.604;2022-09-09T16:06:41;1.67;;;1.58;;
43990;SDS011;29654;50.784;20.604;2022-09-09T16:11:43;1.67;;;1.58;;
43990;SDS011;29654;50.784;20.604;2022-09-09T16:16:47;1.88;;;1.77;;
43990;SDS011;29654;50.784;20.604;2022-09-09T16:21:51;3.85;;;2.47;;
43990;SDS011;29654;50.784;20.604;2022-09-09T16:26:54;4.47;;;4.05;;
43990;SDS011;29654;50.784;20.604;2022-09-09T16:31:56;5.95;;;5.35;;
43990;SDS011;29654;50.784;20.604;2022-09-09T16:37:01;4.95;;;4.57;;
43990;SDS011;29654;50.784;20.604;2022-09-09T16:42:04;4.78;;;4.38;;
43990;SDS011;29654;50.784;20.604;2022-09-09T16:47:07;5.07;;;4.55;;
43990;SDS011;29654;50.784;20.604;2022-09-09T16:52:12;5.45;;;4.95;;
43990;SDS011;29654;50.784;20.604;2022-09-09T16:57:14;7.05;;;6.35;;
43990;SDS011;29654;50.784;20.604;2022-09-09T17:02:17;6.65;;;6.05;;
43990;SDS011;29654;50.784;20.604;2022-09-09T17:07:21;6.25;;;5.65;;
43990;SDS011;29654;50.784;20.604;2022-09-09T17:12:24;8.57;;;7.20;;
43990;SDS011;29654;50.784;20.604;2022-09-09T17:17:27;7.10;;;6.50;;
43990;SDS011;29654;50.784;20.604;2022-09-09T17:22:32;7.18;;;6.47;;
43990;SDS011;29654;50.784;20.604;2022-09-09T17:27:35;7.32;;;6.63;;
43990;SDS011;29654;50.784;20.604;2022-09-09T17:32:37;7.70;;;7.00;;
43990;SDS011;29654;50.784;20.604;2022-09-09T17:37:41;11.48;;;8.63;;
43990;SDS011;29654;50.784;20.604;2022-09-09T17:42:44;18.13;;;13.35;;
43990;SDS011;29654;50.784;20.604;2022-09-09T17:47:47;17.00;;;13.55;;
43990;SDS011;29654;50.784;20.604;2022-09-09T17:52:51;12.30;;;9.63;;
43990;SDS011;29654;50.784;20.604;2022-09-09T17:57:55;10.32;;;9.32;;
43990;SDS011;29654;50.784;20.604;2022-09-09T18:02:59;8.73;;;7.93;;
43990;SDS011;29654;50.784;20.604;2022-09-09T18:08:03;9.32;;;8.05;;
43990;SDS011;29654;50.784;20.604;2022-09-09T18:13:06;8.30;;;7.43;;
43990;SDS011;29654;50.784;20.604;2022-09-09T18:18:09;8.55;;;7.70;;
43990;SDS011;29654;50.784;20.604;2022-09-09T18:23:13;9.00;;;8.20;;
43990;SDS011;29654;50.784;20.604;2022-09-09T18:28:16;9.27;;;8.30;;
43990;SDS011;29654;50.784;20.604;2022-09-09T18:33:20;10.27;;;8.68;;
43990;SDS011;29654;50.784;20.604;2022-09-09T18:38:24;9.35;;;8.32;;
43990;SDS011;29654;50.784;20.604;2022-09-09T18:43:26;10.25;;;9.20;;
43990;SDS011;29654;50.784;20.604;2022-09-09T18:48:31;10.07;;;9.13;;
43990;SDS011;29654;50.784;20.604;2022-09-09T18:53:35;11.45;;;10.23;;
43990;SDS011;29654;50.784;20.604;2022-09-09T18:58:40;10.32;;;9.32;;
43990;SDS011;29654;50.784;20.604;2022-09-09T19:03:43;11.30;;;9.95;;
43990;SDS011;29654;50.784;20.604;2022-09-09T19:08:47;12.88;;;9.10;;
43990;SDS011;29654;50.784;20.604;2022-09-09T19:13:51;10.98;;;9.88;;
43990;SDS011;29654;50.784;20.604;2022-09-09T19:18:57;11.38;;;9.18;;
43990;SDS011;29654;50.784;20.604;2022-09-09T19:24:02;11.68;;;9.98;;
43990;SDS011;29654;50.784;20.604;2022-09-09T19:29:08;11.52;;;9.98;;
43990;SDS011;29654;50.784;20.604;2022-09-09T19:34:14;11.10;;;9.95;;
43990;SDS011;29654;50.784;20.604;2022-09-09T19:39:19;11.98;;;10.63;;
43990;SDS011;29654;50.784;20.604;2022-09-09T19:44:22;13.70;;;10.82;;
43990;SDS011;29654;50.784;20.604;2022-09-09T19:49:25;13.55;;;10.32;;
43990;SDS011;29654;50.784;20.604;2022-09-09T19:54:31;11.40;;;10.30;;
43990;SDS011;29654;50.784;20.604;2022-09-09T19:59:34;11.68;;;10.57;;
43990;SDS011;29654;50.784;20.604;2022-09-09T20:04:37;11.55;;;10.35;;
43990;SDS011;29654;50.784;20.604;2022-09-09T20:09:41;12.40;;;11.13;;
43990;SDS011;29654;50.784;20.604;2022-09-09T20:14:45;14.25;;;12.10;;
43990;SDS011;29654;50.784;20.604;2022-09-09T20:19:47;13.43;;;12.02;;
43990;SDS011;29654;50.784;20.604;2022-09-09T20:24:52;12.98;;;11.68;;
43990;SDS011;29654;50.784;20.604;2022-09-09T20:29:54;12.88;;;11.55;;
43990;SDS011;29654;50.784;20.604;2022-09-09T20:34:57;12.82;;;11.63;;
43990;SDS011;29654;50.784;20.604;2022-09-09T20:40:02;14.10;;;12.63;;
43990;SDS011;29654;50.784;20.604;2022-09-09T20:45:06;13.63;;;12.00;;
43990;SDS011;29654;50.784;20.604;2022-09-09T20:50:15;13.88;;;12.48;;
43990;SDS011;29654;50.784;20.604;2022-09-09T20:55:20;14.13;;;12.65;;
43990;SDS011;29654;50.784;20.604;2022-09-09T21:00:23;15.02;;;12.70;;
43990;SDS011;29654;50.784;20.604;2022-09-09T21:05:26;13.80;;;12.38;;
43990;SDS011;29654;50.784;20.604;2022-09-09T21:10:31;15.35;;;12.70;;
43990;SDS011;29654;50.784;20.604;2022-09-09T21:15:35;14.65;;;12.68;;
43990;SDS011;29654;50.784;20.604;2022-09-09T21:20:38;14.25;;;12.75;;
43990;SDS011;29654;50.784;20.604;2022-09-09T21:25:44;15.32;;;13.40;;
43990;SDS011;29654;50.784;20.604;2022-09-09T21:30:48;14.88;;;13.18;;
43990;SDS011;29654;50.784;20.604;2022-09-09T21:36:00;15.45;;;13.38;;
43990;SDS011;29654;50.784;20.604;2022-09-09T21:41:06;15.07;;;13.57;;
43990;SDS011;29654;50.784;20.604;2022-09-09T21:46:13;15.23;;;13.32;;
43990;SDS011;29654;50.784;20.604;2022-09-09T21:51:17;14.13;;;12.63;;
43990;SDS011;29654;50.784;20.604;2022-09-09T21:56:22;14.73;;;13.05;;
43990;SDS011;29654;50.784;20.604;2022-09-09T22:01:26;13.82;;;12.43;;
43990;SDS011;29654;50.784;20.604;2022-09-09T22:06:32;14.38;;;12.77;;
43990;SDS011;29654;50.784;20.604;2022-09-09T22:11:36;14.73;;;13.10;;
43990;SDS011;29654;50.784;20.604;2022-09-09T22:16:39;14.00;;;12.02;;
43990;SDS011;29654;50.784;20.604;2022-09-09T22:21:42;14.75;;;13.30;;
43990;SDS011;29654;50.784;20.604;2022-09-09T22:26:46;14.80;;;13.10;;
43990;SDS011;29654;50.784;20.604;2022-09-09T22:31:49;14.57;;;12.82;;
43990;SDS011;29654;50.784;20.604;2022-09-09T22:36:52;15.73;;;13.75;;
43990;SDS011;29654;50.784;20.604;2022-09-09T22:41:57;16.63;;;14.27;;
43990;SDS011;29654;50.784;20.604;2022-09-09T22:47:00;15.75;;;14.13;;
43990;SDS011;29654;50.784;20.604;2022-09-09T22:52:03;15.80;;;13.45;;
43990;SDS011;29654;50.784;20.604;2022-09-09T22:57:09;14.05;;;12.50;;
43990;SDS011;29654;50.784;20.604;2022-09-09T23:02:13;15.20;;;13.65;;
43990;SDS011;29654;50.784;20.604;2022-09-09T23:07:16;16.00;;;13.63;;
43990;SDS011;29654;50.784;20.604;2022-09-09T23:12:21;14.90;;;13.32;;
43990;SDS011;29654;50.784;20.604;2022-09-09T23:17:24;15.93;;;14.23;;
43990;SDS011;29654;50.784;20.604;2022-09-09T23:22:28;15.25;;;13.30;;
43990;SDS011;29654;50.784;20.604;2022-09-09T23:27:32;15.07;;;13.50;;
43990;SDS011;29654;50.784;20.604;2022-09-09T23:32:36;15.82;;;14.13;;
43990;SDS011;29654;50.784;20.604;2022-09-09T23:37:39;13.70;;;11.95;;
43990;SDS011;29654;50.784;20.604;2022-09-09T23:42:43;13.35;;;11.95;;
43990;SDS011;29654;50.784;20.604;2022-09-09T23:47:46;14.18;;;12.45;;
43990;SDS011;29654;50.784;20.604;2022-09-09T23:52:49;14.43;;;12.25;;
43990;SDS011;29654;50.784;20.604;2022-09-09T23:57:53;12.77;;;11.48;;
